createdAt,value
2023-05-09T00:00:25.162Z,100.00
2023-05-09T00:02:30.491Z,100.00
2023-05-09T00:04:35.653Z,100.00
2023-05-09T00:06:40.496Z,100.00
2023-05-09T00:08:48.021Z,100.00
2023-05-09T00:10:53.900Z,100.00
2023-05-09T00:12:59.979Z,100.00
2023-05-09T00:15:08.478Z,100.00
2023-05-09T00:17:15.964Z,100.00
2023-05-09T00:19:21.609Z,100.00
2023-05-09T00:21:26.511Z,100.00
2023-05-09T00:23:31.415Z,100.00
2023-05-09T00:25:38.958Z,100.00
2023-05-09T00:27:43.922Z,100.00
2023-05-09T00:29:48.806Z,100.00
2023-05-09T00:31:53.737Z,100.00
2023-05-09T00:33:58.648Z,100.00
2023-05-09T00:36:03.594Z,100.00
2023-05-09T00:38:08.623Z,100.00
2023-05-09T00:40:14.780Z,100.00
2023-05-09T00:42:25.015Z,100.00
2023-05-09T00:44:30.008Z,100.00
2023-05-09T00:46:35.139Z,100.00
2023-05-09T00:48:39.894Z,100.00
2023-05-09T00:50:44.995Z,100.00
2023-05-09T00:52:49.731Z,100.00
2023-05-09T00:54:55.003Z,100.00
2023-05-09T00:57:00.674Z,100.00
2023-05-09T00:59:09.207Z,100.00
2023-05-09T01:01:14.360Z,100.00
2023-05-09T01:03:19.178Z,100.00
2023-05-09T01:05:27.998Z,100.00
2023-05-09T01:07:41.040Z,100.00
2023-05-09T01:09:53.737Z,100.00
2023-05-09T01:12:09.503Z,100.00
2023-05-09T01:14:28.619Z,100.00
2023-05-09T01:16:41.766Z,100.00
2023-05-09T01:18:52.844Z,100.00
2023-05-09T01:21:04.870Z,100.00
2023-05-09T01:23:31.568Z,100.00
2023-05-09T01:25:58.726Z,100.00
2023-05-09T01:28:15.642Z,100.00
2023-05-09T01:30:23.808Z,100.00
2023-05-09T01:32:31.015Z,100.00
2023-05-09T01:34:37.873Z,100.00
2023-05-09T01:36:45.272Z,100.00
2023-05-09T01:38:53.344Z,100.00
2023-05-09T01:41:01.193Z,100.00
2023-05-09T01:43:10.836Z,100.00
2023-05-09T01:45:17.467Z,100.00
2023-05-09T01:47:26.474Z,100.00
2023-05-09T01:49:34.180Z,100.00
2023-05-09T01:51:43.596Z,100.00
2023-05-09T01:53:52.793Z,100.00
2023-05-09T01:55:59.691Z,100.00
2023-05-09T01:58:07.744Z,100.00
2023-05-09T02:00:16.090Z,100.00
2023-05-09T02:02:26.271Z,100.00
2023-05-09T02:04:32.114Z,100.00
2023-05-09T02:06:40.581Z,100.00
2023-05-09T02:08:46.614Z,100.00
2023-05-09T02:10:53.327Z,100.00
2023-05-09T02:12:58.704Z,100.00
2023-05-09T02:15:03.874Z,100.00
2023-05-09T02:17:10.118Z,100.00
2023-05-09T02:19:17.689Z,100.00
2023-05-09T02:21:22.938Z,100.00
2023-05-09T02:23:27.913Z,100.00
2023-05-09T02:25:33.151Z,100.00
2023-05-09T02:27:39.305Z,100.00
2023-05-09T02:29:47.682Z,100.00
2023-05-09T02:31:55.955Z,100.00
2023-05-09T02:34:02.151Z,100.00
2023-05-09T02:36:12.095Z,100.00
2023-05-09T02:38:20.429Z,100.00
2023-05-09T02:40:26.144Z,100.00
2023-05-09T02:42:32.154Z,100.00
2023-05-09T02:44:39.041Z,100.00
2023-05-09T02:46:44.039Z,100.00
2023-05-09T02:48:49.501Z,100.00
2023-05-09T02:50:54.448Z,100.00
2023-05-09T02:53:01.993Z,100.00
2023-05-09T02:55:08.062Z,100.00
2023-05-09T02:57:16.544Z,100.00
2023-05-09T02:59:21.885Z,100.00
2023-05-09T03:01:27.171Z,100.00
2023-05-09T03:03:34.324Z,100.00
2023-05-09T03:05:41.856Z,100.00
2023-05-09T03:07:47.592Z,100.00
2023-05-09T03:09:55.062Z,100.00
2023-05-09T03:12:00.552Z,100.00
2023-05-09T03:14:05.575Z,100.00
2023-05-09T03:16:10.776Z,100.00
2023-05-09T03:18:15.770Z,100.00
2023-05-09T03:20:20.755Z,100.00
2023-05-09T03:22:25.721Z,100.00
2023-05-09T03:24:36.510Z,100.00
2023-05-09T03:26:43.982Z,100.00
2023-05-09T03:28:49.545Z,100.00
2023-05-09T03:30:54.190Z,100.00
2023-05-09T03:33:02.651Z,100.00
2023-05-09T03:35:07.947Z,100.00
2023-05-09T03:37:13.465Z,100.00
2023-05-09T03:39:20.787Z,100.00
2023-05-09T03:41:29.911Z,100.00
2023-05-09T03:43:37.860Z,100.00
2023-05-09T03:45:43.684Z,100.00
2023-05-09T03:47:49.785Z,100.00
2023-05-09T03:49:55.038Z,100.00
2023-05-09T03:52:01.339Z,100.00
2023-05-09T03:54:06.518Z,100.00
2023-05-09T03:56:12.418Z,100.00
2023-05-09T03:58:23.651Z,100.00
2023-05-09T04:00:31.242Z,100.00
2023-05-09T04:02:45.048Z,100.00
2023-05-09T04:04:58.910Z,100.00
2023-05-09T04:07:03.935Z,100.00
2023-05-09T04:09:09.789Z,100.00
2023-05-09T04:11:15.137Z,100.00
2023-05-09T04:13:25.879Z,100.00
2023-05-09T04:15:33.779Z,100.00
2023-05-09T04:17:38.821Z,100.00
2023-05-09T04:19:43.625Z,100.00
2023-05-09T04:21:48.579Z,100.00
2023-05-09T04:23:53.643Z,100.00
2023-05-09T04:26:06.423Z,100.00
2023-05-09T04:28:11.876Z,100.00
2023-05-09T04:30:18.597Z,100.00
2023-05-09T04:32:27.571Z,100.00
2023-05-09T04:34:33.587Z,100.00
2023-05-09T04:36:44.758Z,100.00
2023-05-09T04:38:49.687Z,100.00
2023-05-09T04:40:59.459Z,100.00
2023-05-09T04:43:04.491Z,100.00
2023-05-09T04:45:11.920Z,100.00
2023-05-09T04:47:17.297Z,100.00
2023-05-09T04:49:24.987Z,100.00
2023-05-09T04:51:29.909Z,100.00
2023-05-09T04:53:34.895Z,100.00
2023-05-09T04:55:39.952Z,100.00
2023-05-09T04:57:44.908Z,100.00
2023-05-09T04:59:49.931Z,100.00
2023-05-09T05:01:54.962Z,100.00
2023-05-09T05:04:00.097Z,100.00
2023-05-09T05:06:08.039Z,100.00
2023-05-09T05:08:14.746Z,100.00
2023-05-09T05:10:21.007Z,100.00
2023-05-09T05:12:31.178Z,100.00
2023-05-09T05:14:36.538Z,100.00
2023-05-09T05:16:43.204Z,100.00
2023-05-09T05:18:48.047Z,100.00
2023-05-09T05:20:53.932Z,100.00
2023-05-09T05:23:01.848Z,100.00
2023-05-09T05:25:07.378Z,100.00
2023-05-09T05:27:14.482Z,100.00
2023-05-09T05:29:22.140Z,100.00
2023-05-09T05:31:27.176Z,100.00
2023-05-09T05:33:32.243Z,100.00
2023-05-09T05:35:40.808Z,100.00
2023-05-09T05:37:48.948Z,100.00
2023-05-09T05:39:57.602Z,100.00
2023-05-09T05:42:03.600Z,100.00
2023-05-09T05:44:08.833Z,100.00
2023-05-09T05:46:13.738Z,100.00
2023-05-09T05:48:18.820Z,100.00
2023-05-09T05:50:25.193Z,100.00
2023-05-09T05:52:31.465Z,100.00
2023-05-09T05:54:38.696Z,100.00
2023-05-09T05:56:46.225Z,100.00
2023-05-09T05:58:51.362Z,100.00
2023-05-09T06:00:57.126Z,100.00
2023-05-09T06:03:02.175Z,100.00
2023-05-09T06:05:19.040Z,100.00
2023-05-09T06:07:23.978Z,100.00
2023-05-09T06:09:30.316Z,100.00
2023-05-09T06:11:35.260Z,100.00
2023-05-09T06:13:47.683Z,100.00
2023-05-09T06:15:52.781Z,100.00
2023-05-09T06:17:57.726Z,100.00
2023-05-09T06:20:02.684Z,100.00
2023-05-09T06:22:07.584Z,100.00
2023-05-09T06:24:23.470Z,100.00
2023-05-09T06:26:37.112Z,100.00
2023-05-09T06:28:47.487Z,100.00
2023-05-09T06:30:53.250Z,100.00
2023-05-09T06:32:58.594Z,100.00
2023-05-09T06:35:03.580Z,100.00
2023-05-09T06:37:08.756Z,100.00
2023-05-09T06:39:13.812Z,100.00
2023-05-09T06:41:18.574Z,100.00
2023-05-09T06:43:23.503Z,100.00
2023-05-09T06:45:31.315Z,100.00
2023-05-09T06:47:36.461Z,100.00
2023-05-09T06:49:41.399Z,100.00
2023-05-09T06:51:46.295Z,100.00
2023-05-09T06:53:51.275Z,100.00
2023-05-09T06:55:56.297Z,100.00
2023-05-09T06:58:01.274Z,100.00
2023-05-09T07:00:07.305Z,100.00
2023-05-09T07:02:14.777Z,99.01
2023-05-09T07:04:22.070Z,97.57
2023-05-09T07:06:27.137Z,96.65
2023-05-09T07:08:32.135Z,97.12
2023-05-09T07:10:38.562Z,96.64
2023-05-09T07:12:44.167Z,94.54
2023-05-09T07:14:49.138Z,95.61
2023-05-09T07:16:56.504Z,95.17
2023-05-09T07:19:09.879Z,92.57
2023-05-09T07:21:14.909Z,92.06
2023-05-09T07:23:22.386Z,93.03
2023-05-09T07:25:27.454Z,93.50
2023-05-09T07:27:32.347Z,92.61
2023-05-09T07:29:37.548Z,91.57
2023-05-09T07:31:44.468Z,90.89
2023-05-09T07:33:49.388Z,90.43
2023-05-09T07:35:56.966Z,89.28
2023-05-09T07:38:01.984Z,90.12
2023-05-09T07:40:08.307Z,89.17
2023-05-09T07:42:13.449Z,88.55
2023-05-09T07:44:18.062Z,87.40
2023-05-09T07:46:23.261Z,87.87
2023-05-09T07:48:28.069Z,86.95
2023-05-09T07:50:33.036Z,85.66
2023-05-09T07:52:40.664Z,85.23
2023-05-09T07:54:45.588Z,82.40
2023-05-09T07:56:50.317Z,83.88
2023-05-09T07:58:55.777Z,83.83
2023-05-09T08:01:01.005Z,82.84
2023-05-09T08:03:05.802Z,82.93
2023-05-09T08:05:14.208Z,83.51
2023-05-09T08:07:21.275Z,82.53
2023-05-09T08:09:29.126Z,80.76
2023-05-09T08:11:36.196Z,78.22
2023-05-09T08:13:41.143Z,78.02
2023-05-09T08:15:46.199Z,77.47
2023-05-09T08:17:51.009Z,78.46
2023-05-09T08:19:56.045Z,79.07
2023-05-09T08:22:00.866Z,77.46
2023-05-09T08:24:08.181Z,76.46
2023-05-09T08:26:15.803Z,73.73
2023-05-09T08:28:22.189Z,72.28
2023-05-09T08:30:27.294Z,69.07
2023-05-09T08:32:32.135Z,68.71
2023-05-09T08:34:37.862Z,68.24
2023-05-09T08:36:47.239Z,60.39
2023-05-09T08:38:52.156Z,60.13
2023-05-09T08:41:02.585Z,57.76
2023-05-09T08:43:11.928Z,57.89
2023-05-09T08:45:19.582Z,58.43
2023-05-09T08:47:25.627Z,57.99
2023-05-09T08:49:30.953Z,58.06
2023-05-09T08:51:36.053Z,56.26
2023-05-09T08:53:40.740Z,57.87
2023-05-09T08:55:45.854Z,59.20
2023-05-09T08:57:52.517Z,58.19
2023-05-09T09:00:00.566Z,56.10
2023-05-09T09:02:09.184Z,56.32
2023-05-09T09:04:14.806Z,56.30
2023-05-09T09:06:20.309Z,55.46
2023-05-09T09:08:25.734Z,57.08
2023-05-09T09:10:34.787Z,58.58
2023-05-09T09:12:40.466Z,53.29
2023-05-09T09:14:49.503Z,50.35
2023-05-09T09:17:00.343Z,52.02
2023-05-09T09:19:07.965Z,50.23
2023-05-09T09:21:15.993Z,50.35
2023-05-09T09:23:24.874Z,53.25
2023-05-09T09:25:29.868Z,53.39
2023-05-09T09:27:35.783Z,53.65
2023-05-09T09:29:41.452Z,52.00
2023-05-09T09:31:48.735Z,46.70
2023-05-09T09:34:02.485Z,46.64
2023-05-09T09:36:08.789Z,44.59
2023-05-09T09:38:13.734Z,43.26
2023-05-09T09:40:18.628Z,44.33
2023-05-09T09:42:24.316Z,43.71
2023-05-09T09:44:30.687Z,44.54
2023-05-09T09:46:44.037Z,43.40
2023-05-09T09:48:53.019Z,43.04
2023-05-09T09:51:04.965Z,42.18
2023-05-09T09:53:09.871Z,40.76
2023-05-09T09:55:16.237Z,40.33
2023-05-09T09:57:37.268Z,41.07
2023-05-09T09:59:44.916Z,41.72
2023-05-09T10:02:00.395Z,40.52
2023-05-09T10:04:06.051Z,40.50
2023-05-09T10:06:18.596Z,41.85
2023-05-09T10:08:23.520Z,40.61
2023-05-09T10:10:32.363Z,40.25
2023-05-09T10:12:42.431Z,40.77
2023-05-09T10:14:47.899Z,40.00
2023-05-09T10:16:55.465Z,39.32
2023-05-09T10:19:00.540Z,39.44
2023-05-09T10:21:05.651Z,39.59
2023-05-09T10:23:14.292Z,38.84
2023-05-09T10:25:22.826Z,39.48
2023-05-09T10:27:31.385Z,39.40
2023-05-09T10:29:38.976Z,39.44
2023-05-09T10:31:46.539Z,39.56
2023-05-09T10:33:52.774Z,39.85
2023-05-09T10:36:03.652Z,39.38
2023-05-09T10:38:12.626Z,38.95
2023-05-09T10:40:22.649Z,37.51
2023-05-09T10:42:28.629Z,37.65
2023-05-09T10:44:33.978Z,37.74
2023-05-09T10:46:41.028Z,38.89
2023-05-09T10:48:46.708Z,37.65
2023-05-09T10:50:52.159Z,37.91
2023-05-09T10:53:14.314Z,36.12
2023-05-09T10:55:25.143Z,35.56
2023-05-09T10:57:31.389Z,36.41
2023-05-09T10:59:39.023Z,36.02
2023-05-09T11:01:44.102Z,35.71
2023-05-09T11:03:58.300Z,36.22
2023-05-09T11:06:03.309Z,36.84
2023-05-09T11:08:23.815Z,36.25
2023-05-09T11:10:45.386Z,36.25
2023-05-09T11:13:01.093Z,36.20
2023-05-09T11:15:11.065Z,35.20
2023-05-09T11:17:17.993Z,33.42
2023-05-09T11:19:37.896Z,33.33
2023-05-09T11:22:03.673Z,33.92
2023-05-09T11:24:19.994Z,34.74
2023-05-09T11:26:32.129Z,34.92
2023-05-09T11:28:38.999Z,35.74
2023-05-09T11:30:45.617Z,35.25
2023-05-09T11:32:55.329Z,34.91
2023-05-09T11:35:10.212Z,35.30
2023-05-09T11:37:16.476Z,35.07
2023-05-09T11:39:28.119Z,34.58
2023-05-09T11:41:44.086Z,33.49
2023-05-09T11:43:49.164Z,33.12
2023-05-09T11:45:54.060Z,31.80
2023-05-09T11:48:00.853Z,30.67
2023-05-09T11:50:06.067Z,29.85
2023-05-09T11:52:10.773Z,30.52
2023-05-09T11:54:15.673Z,30.80
2023-05-09T11:56:20.832Z,31.08
2023-05-09T11:58:31.421Z,30.60
2023-05-09T12:00:37.472Z,30.23
2023-05-09T12:02:42.818Z,29.55
2023-05-09T12:04:48.218Z,28.94
2023-05-09T12:06:53.336Z,29.03
2023-05-09T12:08:59.893Z,29.19
2023-05-09T12:11:11.433Z,27.80
2023-05-09T12:13:18.446Z,27.37
2023-05-09T12:15:25.987Z,26.92
2023-05-09T12:17:31.658Z,26.77
2023-05-09T12:19:37.337Z,27.08
2023-05-09T12:21:43.325Z,26.87
2023-05-09T12:23:51.693Z,26.51
2023-05-09T12:25:59.740Z,26.50
2023-05-09T12:28:04.741Z,26.22
2023-05-09T12:30:11.028Z,26.09
2023-05-09T12:32:22.265Z,25.77
2023-05-09T12:34:27.973Z,25.67
2023-05-09T12:36:37.907Z,26.14
2023-05-09T12:38:43.671Z,25.64
2023-05-09T12:40:51.852Z,25.97
2023-05-09T12:43:00.371Z,25.18
2023-05-09T12:45:06.149Z,25.02
2023-05-09T12:47:11.197Z,25.52
2023-05-09T12:49:25.582Z,25.32
2023-05-09T12:51:30.457Z,25.49
2023-05-09T12:53:41.906Z,25.28
2023-05-09T12:55:47.306Z,25.18
2023-05-09T12:58:02.565Z,25.25
2023-05-09T13:00:10.433Z,25.29
2023-05-09T13:02:16.466Z,25.35
2023-05-09T13:04:28.953Z,25.56
2023-05-09T13:06:34.880Z,25.88
2023-05-09T13:08:40.348Z,26.29
2023-05-09T13:10:45.294Z,25.61
2023-05-09T13:12:51.537Z,25.37
2023-05-09T13:14:56.542Z,25.10
2023-05-09T13:17:01.515Z,25.79
2023-05-09T13:19:06.587Z,26.01
2023-05-09T13:21:14.287Z,26.37
2023-05-09T13:23:19.240Z,27.08
2023-05-09T13:25:23.965Z,27.16
2023-05-09T13:27:29.287Z,26.84
2023-05-09T13:29:34.867Z,26.51
2023-05-09T13:31:39.812Z,25.54
2023-05-09T13:33:44.496Z,25.96
2023-05-09T13:35:49.515Z,25.75
2023-05-09T13:37:58.945Z,25.90
2023-05-09T13:40:07.336Z,26.18
2023-05-09T13:42:12.405Z,26.44
2023-05-09T13:44:17.156Z,25.98
2023-05-09T13:46:22.114Z,26.21
2023-05-09T13:48:27.296Z,25.75
2023-05-09T13:50:32.152Z,25.91
2023-05-09T13:52:37.163Z,26.32
2023-05-09T13:54:45.354Z,26.03
2023-05-09T13:56:51.379Z,26.36
2023-05-09T13:58:56.318Z,26.62
2023-05-09T14:01:01.212Z,25.76
2023-05-09T14:03:06.632Z,25.52
2023-05-09T14:05:12.477Z,24.68
2023-05-09T14:07:20.655Z,25.13
2023-05-09T14:09:28.729Z,25.36
2023-05-09T14:11:36.274Z,25.23
2023-05-09T14:13:41.448Z,25.36
2023-05-09T14:15:46.609Z,25.14
2023-05-09T14:17:51.721Z,25.45
2023-05-09T14:19:56.838Z,25.47
2023-05-09T14:22:01.741Z,25.31
2023-05-09T14:24:06.597Z,25.32
2023-05-09T14:26:11.566Z,24.43
2023-05-09T14:28:19.227Z,25.86
2023-05-09T14:30:25.827Z,25.74
2023-05-09T14:32:30.702Z,25.55
2023-05-09T14:34:35.611Z,25.55
2023-05-09T14:36:40.803Z,25.26
2023-05-09T14:38:47.021Z,25.20
2023-05-09T14:40:52.215Z,25.44
2023-05-09T14:42:59.643Z,24.92
2023-05-09T14:45:10.657Z,25.45
2023-05-09T14:47:17.120Z,25.13
2023-05-09T14:49:22.848Z,25.87
2023-05-09T14:51:28.408Z,25.57
2023-05-09T14:53:35.648Z,25.70
2023-05-09T14:55:40.622Z,26.22
2023-05-09T14:57:45.284Z,26.49
2023-05-09T14:59:50.228Z,27.00
2023-05-09T15:01:57.573Z,25.99
2023-05-09T15:04:02.557Z,27.09
2023-05-09T15:06:08.014Z,27.51
2023-05-09T15:08:13.048Z,27.63
2023-05-09T15:10:18.067Z,27.87
2023-05-09T15:12:23.669Z,27.69
2023-05-09T15:14:28.687Z,27.08
2023-05-09T15:16:33.469Z,25.75
2023-05-09T15:18:44.132Z,25.56
2023-05-09T15:20:49.191Z,26.12
2023-05-09T15:22:54.295Z,26.63
2023-05-09T15:24:59.245Z,26.93
2023-05-09T15:27:04.475Z,26.53
2023-05-09T15:29:09.696Z,26.44
2023-05-09T15:31:14.657Z,26.27
2023-05-09T15:33:22.269Z,27.19
2023-05-09T15:35:30.068Z,27.92
2023-05-09T15:37:35.848Z,28.47
2023-05-09T15:39:43.585Z,27.88
2023-05-09T15:41:51.479Z,27.82
2023-05-09T15:43:56.534Z,26.89
2023-05-09T15:46:01.561Z,26.01
2023-05-09T15:48:07.108Z,25.57
2023-05-09T15:50:13.053Z,25.26
2023-05-09T15:52:20.880Z,26.17
2023-05-09T15:54:26.489Z,26.96
2023-05-09T15:56:31.401Z,26.69
2023-05-09T15:58:36.984Z,26.77
2023-05-09T16:00:41.988Z,27.48
2023-05-09T16:02:47.061Z,27.53
2023-05-09T16:04:52.122Z,27.88
2023-05-09T16:06:57.347Z,27.56
2023-05-09T16:09:05.340Z,26.79
2023-05-09T16:11:10.449Z,26.20
2023-05-09T16:13:15.347Z,27.30
2023-05-09T16:15:20.797Z,28.01
2023-05-09T16:17:25.780Z,27.78
2023-05-09T16:19:33.714Z,26.78
2023-05-09T16:21:40.939Z,26.41
2023-05-09T16:23:45.862Z,25.90
2023-05-09T16:25:53.110Z,27.67
2023-05-09T16:27:58.041Z,28.02
2023-05-09T16:30:02.790Z,28.47
2023-05-09T16:32:08.454Z,28.18
2023-05-09T16:34:13.767Z,27.64
2023-05-09T16:36:18.964Z,27.70
2023-05-09T16:38:23.948Z,28.37
2023-05-09T16:40:28.724Z,30.04
2023-05-09T16:42:36.488Z,30.03
2023-05-09T16:44:41.471Z,30.55
2023-05-09T16:46:47.324Z,31.13
2023-05-09T16:48:54.038Z,31.62
2023-05-09T16:50:58.936Z,32.03
2023-05-09T16:53:05.019Z,32.06
2023-05-09T16:55:10.956Z,31.87
2023-05-09T16:57:16.171Z,31.34
2023-05-09T16:59:23.668Z,31.60
2023-05-09T17:01:29.339Z,31.49
2023-05-09T17:03:34.482Z,31.37
2023-05-09T17:05:39.188Z,31.93
2023-05-09T17:07:44.071Z,32.39
2023-05-09T17:09:49.896Z,31.29
2023-05-09T17:11:54.851Z,31.14
2023-05-09T17:13:59.755Z,30.73
2023-05-09T17:16:07.852Z,30.46
2023-05-09T17:18:17.033Z,30.39
2023-05-09T17:20:25.929Z,29.92
2023-05-09T17:22:30.938Z,30.44
2023-05-09T17:24:35.703Z,30.23
2023-05-09T17:26:40.723Z,30.43
2023-05-09T17:28:45.410Z,30.44
2023-05-09T17:30:50.500Z,30.65
2023-05-09T17:32:58.068Z,30.38
2023-05-09T17:35:03.376Z,30.39
2023-05-09T17:37:09.366Z,31.57
2023-05-09T17:39:14.363Z,31.61
2023-05-09T17:41:19.313Z,31.83
2023-05-09T17:43:24.626Z,32.19
2023-05-09T17:45:29.576Z,32.78
2023-05-09T17:47:34.498Z,33.01
2023-05-09T17:49:42.038Z,32.76
2023-05-09T17:51:47.506Z,33.27
2023-05-09T17:53:53.044Z,33.28
2023-05-09T17:55:58.044Z,33.15
2023-05-09T17:58:03.291Z,33.51
2023-05-09T18:00:15.015Z,33.81
2023-05-09T18:02:24.083Z,34.11
2023-05-09T18:04:31.262Z,34.11
2023-05-09T18:06:38.976Z,34.62
2023-05-09T18:08:44.019Z,34.60
2023-05-09T18:10:49.193Z,34.68
2023-05-09T18:12:54.116Z,35.04
2023-05-09T18:14:58.852Z,35.45
2023-05-09T18:17:03.777Z,35.79
2023-05-09T18:19:08.780Z,36.40
2023-05-09T18:21:14.122Z,36.29
2023-05-09T18:23:22.150Z,36.55
2023-05-09T18:25:27.671Z,36.84
2023-05-09T18:27:32.627Z,36.93
2023-05-09T18:29:37.558Z,36.89
2023-05-09T18:31:45.689Z,37.09
2023-05-09T18:33:50.692Z,37.47
2023-05-09T18:35:56.180Z,37.70
2023-05-09T18:38:01.121Z,37.62
2023-05-09T18:40:10.918Z,37.92
2023-05-09T18:42:16.538Z,38.66
2023-05-09T18:44:21.504Z,38.57
2023-05-09T18:46:28.085Z,38.81
2023-05-09T18:48:33.678Z,39.18
2023-05-09T18:50:38.609Z,39.58
2023-05-09T18:52:44.642Z,39.22
2023-05-09T18:54:49.695Z,39.47
2023-05-09T18:56:56.901Z,39.76
2023-05-09T18:59:01.838Z,40.37
2023-05-09T19:01:11.573Z,40.44
2023-05-09T19:03:16.864Z,40.82
2023-05-09T19:05:21.731Z,40.82
2023-05-09T19:07:26.790Z,40.88
2023-05-09T19:09:31.619Z,40.96
2023-05-09T19:11:36.465Z,40.99
2023-05-09T19:13:48.840Z,41.38
2023-05-09T19:15:53.890Z,41.49
2023-05-09T19:17:58.893Z,41.26
2023-05-09T19:20:04.175Z,41.49
2023-05-09T19:22:09.356Z,41.94
2023-05-09T19:24:14.274Z,42.08
2023-05-09T19:26:19.806Z,41.88
2023-05-09T19:28:24.972Z,41.79
2023-05-09T19:30:32.624Z,42.17
2023-05-09T19:32:37.643Z,41.98
2023-05-09T19:34:44.179Z,42.16
2023-05-09T19:36:49.644Z,42.49
2023-05-09T19:38:54.682Z,42.75
2023-05-09T19:40:59.639Z,43.02
2023-05-09T19:43:14.802Z,43.57
2023-05-09T19:45:22.331Z,43.65
2023-05-09T19:47:30.071Z,44.45
2023-05-09T19:49:35.329Z,45.24
2023-05-09T19:51:40.691Z,45.79
2023-05-09T19:53:54.279Z,45.63
2023-05-09T19:55:59.200Z,46.26
2023-05-09T19:58:04.261Z,46.79
2023-05-09T20:00:10.544Z,47.22
2023-05-09T20:02:16.931Z,47.86
2023-05-09T20:04:24.733Z,48.57
2023-05-09T20:06:30.329Z,48.87
2023-05-09T20:08:35.361Z,48.61
2023-05-09T20:10:40.152Z,49.08
2023-05-09T20:12:45.639Z,49.69
2023-05-09T20:14:50.534Z,50.19
2023-05-09T20:16:55.647Z,50.23
2023-05-09T20:19:00.344Z,51.24
2023-05-09T20:21:09.907Z,52.05
2023-05-09T20:23:14.986Z,52.57
2023-05-09T20:25:20.261Z,54.01
2023-05-09T20:27:25.233Z,56.09
2023-05-09T20:29:30.314Z,57.08
2023-05-09T20:31:35.075Z,59.44
2023-05-09T20:33:40.217Z,61.02
2023-05-09T20:35:45.381Z,63.13
2023-05-09T20:37:52.900Z,63.34
2023-05-09T20:39:57.848Z,66.09
2023-05-09T20:42:02.772Z,68.28
2023-05-09T20:44:08.363Z,69.69
2023-05-09T20:46:14.248Z,71.15
2023-05-09T20:48:22.655Z,73.21
2023-05-09T20:50:27.558Z,74.49
2023-05-09T20:52:32.683Z,74.95
2023-05-09T20:54:39.972Z,77.26
2023-05-09T20:56:44.858Z,78.38
2023-05-09T20:58:49.787Z,77.95
2023-05-09T21:00:54.820Z,78.41
2023-05-09T21:02:59.737Z,79.03
2023-05-09T21:05:04.711Z,79.56
2023-05-09T21:07:10.194Z,80.13
2023-05-09T21:09:15.095Z,80.68
2023-05-09T21:11:22.997Z,82.39
2023-05-09T21:13:28.113Z,82.18
2023-05-09T21:15:34.159Z,82.03
2023-05-09T21:17:39.252Z,81.65
2023-05-09T21:19:44.304Z,80.71
2023-05-09T21:21:49.225Z,80.29
2023-05-09T21:23:54.146Z,82.35
2023-05-09T21:25:59.084Z,81.63
2023-05-09T21:28:06.597Z,84.51
2023-05-09T21:30:12.572Z,85.07
2023-05-09T21:32:17.752Z,83.60
2023-05-09T21:34:22.897Z,85.05
2023-05-09T21:36:28.292Z,84.28
2023-05-09T21:38:33.188Z,84.57
2023-05-09T21:40:38.145Z,83.67
2023-05-09T21:42:44.269Z,82.97
2023-05-09T21:44:51.892Z,84.05
2023-05-09T21:46:56.858Z,82.90
2023-05-09T21:49:01.959Z,82.39
2023-05-09T21:51:07.741Z,82.65
2023-05-09T21:53:12.614Z,81.79
2023-05-09T21:55:19.039Z,82.42
2023-05-09T21:57:24.074Z,83.12
2023-05-09T21:59:29.537Z,84.63
2023-05-09T22:01:37.156Z,91.81
2023-05-09T22:03:42.204Z,93.56
2023-05-09T22:05:47.259Z,99.94
2023-05-09T22:07:53.663Z,100.00
2023-05-09T22:09:58.528Z,100.00
2023-05-09T22:12:04.197Z,100.00
2023-05-09T22:14:10.472Z,100.00
2023-05-09T22:16:15.430Z,100.00
2023-05-09T22:18:25.188Z,100.00
2023-05-09T22:20:30.486Z,100.00
2023-05-09T22:22:35.463Z,100.00
2023-05-09T22:24:41.754Z,100.00
2023-05-09T22:26:46.660Z,100.00
2023-05-09T22:28:51.779Z,100.00
2023-05-09T22:30:57.179Z,100.00
2023-05-09T22:33:02.864Z,100.00
2023-05-09T22:35:12.040Z,100.00
2023-05-09T22:37:17.015Z,100.00
2023-05-09T22:39:23.958Z,100.00
2023-05-09T22:41:28.695Z,100.00
2023-05-09T22:43:38.586Z,100.00
2023-05-09T22:45:44.492Z,100.00
2023-05-09T22:47:49.502Z,100.00
2023-05-09T22:49:54.512Z,100.00
2023-05-09T22:52:02.384Z,100.00
2023-05-09T22:54:07.397Z,100.00
2023-05-09T22:56:12.903Z,100.00
2023-05-09T22:58:17.959Z,100.00
2023-05-09T23:00:25.632Z,100.00
2023-05-09T23:02:30.371Z,100.00
2023-05-09T23:04:35.461Z,100.00
2023-05-09T23:06:40.458Z,100.00
2023-05-09T23:08:47.923Z,100.00
2023-05-09T23:10:52.978Z,100.00
2023-05-09T23:12:57.821Z,100.00
2023-05-09T23:15:02.786Z,100.00
2023-05-09T23:17:08.188Z,100.00
2023-05-09T23:19:13.313Z,100.00
2023-05-09T23:21:17.888Z,100.00
2023-05-09T23:23:25.566Z,100.00
2023-05-09T23:25:33.002Z,100.00
2023-05-09T23:27:40.771Z,100.00
2023-05-09T23:29:45.767Z,100.00
2023-05-09T23:31:50.965Z,100.00
2023-05-09T23:33:55.876Z,100.00
2023-05-09T23:36:00.851Z,100.00
2023-05-09T23:38:06.160Z,100.00
2023-05-09T23:40:12.308Z,100.00
2023-05-09T23:42:22.524Z,100.00
2023-05-09T23:44:27.506Z,100.00
2023-05-09T23:46:32.596Z,100.00
2023-05-09T23:48:37.640Z,100.00
2023-05-09T23:50:45.497Z,100.00
2023-05-09T23:52:51.291Z,100.00
2023-05-09T23:54:56.224Z,100.00
2023-05-09T23:57:01.141Z,100.00
2023-05-09T23:59:08.659Z,100.00
